Time;durP1;ratioP1;P1;durP2;ratioP2;P2;SDS_P1;SDS_P2;PMS_P1;PMS_P2;Temp;Humidity;BMP_temperature;BMP_pressure;BME280_temperature;BME280_humidity;BME280_pressure;Samples;Min_cycle;Max_cycle;Signal;HPM_P1;HPM_P2
2022/03/16 00:02:02;;;;;;;16.50;14.73;;;;;;;3.25;100.00;101949.69;5097314;28;20578;-64
2022/03/16 00:04:28;;;;;;;21.40;15.20;;;;;;;3.29;100.00;101951.47;5097366;28;20177;-64
2022/03/16 00:06:55;;;;;;;19.73;14.13;;;;;;;3.26;100.00;101955.72;5097070;28;20177;-66
2022/03/16 00:09:22;;;;;;;21.27;13.93;;;;;;;3.26;100.00;101958.31;5097066;28;20597;-66
2022/03/16 00:11:48;;;;;;;20.47;15.07;;;;;;;3.18;100.00;101963.41;5097178;28;20255;-66
2022/03/16 00:14:15;;;;;;;19.70;15.07;;;;;;;3.11;100.00;101966.81;5096978;28;20246;-66
2022/03/16 00:16:41;;;;;;;18.23;15.93;;;;;;;3.08;100.00;101969.38;5096832;28;20621;-66
2022/03/16 00:19:08;;;;;;;24.57;16.47;;;;;;;3.00;100.00;101971.91;5097170;28;20188;-66
2022/03/16 00:21:34;;;;;;;25.60;19.57;;;;;;;2.92;100.00;101978.69;5096724;28;20202;-66
2022/03/16 00:24:02;;;;;;;23.40;16.83;;;;;;;2.83;100.00;101970.84;5096793;28;20190;-66
2022/03/16 00:26:33;;;;;;;19.67;15.30;;;;;;;2.70;100.00;101966.38;5096772;28;20174;-66
2022/03/16 00:29:00;;;;;;;20.20;14.80;;;;;;;2.67;100.00;101971.53;5096678;28;20243;-66
2022/03/16 00:31:26;;;;;;;20.03;14.90;;;;;;;2.62;100.00;101970.59;5096598;28;20186;-66
2022/03/16 00:33:53;;;;;;;20.60;14.87;;;;;;;2.64;100.00;101976.63;5096611;28;20186;-66
2022/03/16 00:36:21;;;;;;;20.03;16.07;;;;;;;2.73;100.00;101975.06;5096832;28;20234;-66
2022/03/16 00:38:48;;;;;;;23.20;16.90;;;;;;;2.78;100.00;101972.50;5096839;28;20186;-66
2022/03/16 00:41:15;;;;;;;25.30;15.53;;;;;;;2.73;100.00;101974.19;5096756;28;20201;-66
2022/03/16 00:43:43;;;;;;;26.17;17.63;;;;;;;2.74;100.00;101979.38;5078202;28;20214;-66
2022/03/16 00:46:11;;;;;;;21.53;17.27;;;;;;;2.66;100.00;101978.41;5078198;28;20186;-66
2022/03/16 00:48:37;;;;;;;33.80;18.73;;;;;;;2.66;100.00;101981.00;5096900;28;20182;-66
2022/03/16 00:51:04;;;;;;;24.13;17.80;;;;;;;2.72;100.00;101977.63;5096532;28;20178;-66
2022/03/16 00:53:34;;;;;;;23.03;18.00;;;;;;;2.70;100.00;101976.72;5096437;28;20271;-66
2022/03/16 00:56:02;;;;;;;22.80;17.60;;;;;;;2.70;100.00;101987.94;5096185;28;20205;-66
2022/03/16 00:58:28;;;;;;;21.40;15.70;;;;;;;2.52;100.00;101992.91;5077976;28;20198;-66
2022/03/16 01:00:55;;;;;;;19.43;15.27;;;;;;;2.50;100.00;101994.59;5095081;28;20197;-66
2022/03/16 01:03:22;;;;;;;24.13;16.97;;;;;;;2.43;100.00;101985.91;5095984;28;20233;-67
2022/03/16 01:05:49;;;;;;;31.27;18.67;;;;;;;2.46;100.00;101995.41;5078131;28;20653;-66
2022/03/16 01:08:16;;;;;;;24.90;17.93;;;;;;;2.46;100.00;101995.41;5095948;28;20655;-66
2022/03/16 01:10:42;;;;;;;27.77;18.57;;;;;;;2.49;100.00;101998.00;5095892;28;20220;-66
2022/03/16 01:13:09;;;;;;;21.83;16.83;;;;;;;2.35;100.00;102003.00;5095841;28;20240;-66
2022/03/16 01:15:35;;;;;;;20.90;16.57;;;;;;;2.30;100.00;101996.06;5095726;28;20208;-66
2022/03/16 01:18:02;;;;;;;19.13;15.73;;;;;;;2.30;100.00;101996.94;5077636;28;20249;-66
2022/03/16 01:20:28;;;;;;;22.57;17.27;;;;;;;2.34;100.00;101993.50;5077699;28;20233;-66
2022/03/16 01:22:55;;;;;;;24.07;16.40;;;;;;;2.40;100.00;101985.84;5095743;28;20207;-66
2022/03/16 01:25:23;;;;;;;23.33;16.03;;;;;;;2.39;100.00;101980.66;5077705;28;20190;-66
2022/03/16 01:27:49;;;;;;;26.10;17.33;;;;;;;2.48;100.00;101993.69;5096163;28;20216;-66
2022/03/16 01:30:16;;;;;;;38.47;16.90;;;;;;;2.47;100.00;101990.25;5077380;28;20201;-66
2022/03/16 01:32:43;;;;;;;22.20;15.57;;;;;;;2.32;100.00;101990.06;5077537;28;20609;-66
2022/03/16 01:35:11;;;;;;;24.40;17.63;;;;;;;2.21;100.00;101986.44;5077310;28;20189;-66
2022/03/16 01:37:37;;;;;;;27.53;15.70;;;;;;;2.07;100.00;101988.88;5095308;28;20202;-66
2022/03/16 01:40:08;;;;;;;27.70;16.43;;;;;;;1.97;100.00;101992.16;5095587;28;20704;-66
2022/03/16 01:42:34;;;;;;;31.40;18.87;;;;;;;1.96;100.00;101982.66;5095398;28;20212;-66
2022/03/16 01:45:04;;;;;;;24.23;17.67;;;;;;;2.03;100.00;101979.31;5077921;28;20195;-66
2022/03/16 01:47:32;;;;;;;27.30;17.97;;;;;;;1.99;100.00;101969.78;5077105;28;20195;-67
2022/03/16 01:49:58;;;;;;;25.40;17.33;;;;;;;1.91;100.00;101980.00;5095139;28;20196;-66
2022/03/16 01:52:27;;;;;;;26.50;16.97;;;;;;;1.88;100.00;101982.56;5076877;28;20683;-66
2022/03/16 01:54:54;;;;;;;29.20;17.50;;;;;;;1.86;100.00;101984.25;5076936;28;20604;-66
2022/03/16 01:57:23;;;;;;;29.27;20.23;;;;;;;1.91;100.00;101984.31;5095126;28;20221;-66
2022/03/16 01:59:50;;;;;;;33.47;20.57;;;;;;;1.93;100.00;101980.91;5076794;28;20190;-66
2022/03/16 02:02:17;;;;;;;30.30;19.13;;;;;;;1.90;100.00;101975.69;5076626;28;20208;-66
2022/03/16 02:04:44;;;;;;;25.60;19.63;;;;;;;1.83;100.00;101973.88;5076778;28;20222;-66
2022/03/16 02:07:11;;;;;;;32.90;19.27;;;;;;;1.92;100.00;101979.16;5095320;28;20189;-66
2022/03/16 02:09:37;;;;;;;27.43;19.60;;;;;;;1.91;100.00;101986.88;5094999;28;20195;-66
2022/03/16 02:12:04;;;;;;;28.67;18.43;;;;;;;1.86;100.00;101996.31;5094505;28;20261;-66
2022/03/16 02:14:31;;;;;;;25.67;18.53;;;;;;;1.74;100.00;101994.41;5094935;28;20192;-66
2022/03/16 02:16:58;;;;;;;23.30;17.30;;;;;;;1.69;100.00;102001.19;5094532;28;20263;-66
2022/03/16 02:19:28;;;;;;;33.70;20.00;;;;;;;1.64;100.00;101998.56;5094483;28;20715;-66
2022/03/16 02:22:00;;;;;;;26.63;19.40;;;;;;;1.68;100.00;102001.16;5094606;28;20254;-66
2022/03/16 02:24:29;;;;;;;30.00;19.03;;;;;;;1.73;100.00;102003.00;5094796;28;20520;-66
2022/03/16 02:26:57;;;;;;;27.83;19.10;;;;;;;1.71;100.00;102008.94;5094398;28;20270;-66
2022/03/16 02:29:23;;;;;;;37.97;19.83;;;;;;;1.69;100.00;101997.75;5094422;28;20595;-66
2022/03/16 02:31:50;;;;;;;34.17;21.13;;;;;;;1.58;100.00;101988.13;5094543;28;20208;-66
2022/03/16 02:34:16;;;;;;;36.30;21.40;;;;;;;1.53;100.00;101992.34;5094280;28;20224;-66
2022/03/16 02:36:43;;;;;;;35.93;21.40;;;;;;;1.66;100.00;101985.66;5094188;28;20204;-66
2022/03/16 02:39:09;;;;;;;30.67;21.20;;;;;;;1.74;100.00;101983.19;5094518;28;20646;-66
2022/03/16 02:41:36;;;;;;;34.53;21.10;;;;;;;1.77;100.00;101978.94;5094626;28;20236;-66
2022/03/16 02:44:02;;;;;;;38.20;22.70;;;;;;;1.77;100.00;101975.47;5094121;28;20191;-66
2022/03/16 02:46:29;;;;;;;43.47;22.80;;;;;;;1.80;100.00;101968.66;5094097;28;20181;-66
2022/03/16 02:48:56;;;;;;;39.20;23.23;;;;;;;1.81;100.00;101967.81;5094598;28;20186;-66
2022/03/16 02:51:22;;;;;;;38.90;21.97;;;;;;;1.90;100.00;101967.94;5094002;28;20189;-66
2022/03/16 02:53:48;;;;;;;40.47;22.03;;;;;;;2.06;100.00;101963.00;5094094;28;20272;-66
2022/03/16 02:56:15;;;;;;;39.77;22.53;;;;;;;2.14;100.00;101959.69;5093861;28;20201;-66
2022/03/16 02:58:42;;;;;;;38.67;22.20;;;;;;;2.23;100.00;101958.94;5093876;28;20236;-66
2022/03/16 03:01:12;;;;;;;30.50;20.87;;;;;;;2.33;100.00;101960.78;5094166;28;20176;-66
2022/03/16 03:03:39;;;;;;;32.03;20.23;;;;;;;2.41;100.00;101958.28;5093953;28;20543;-66
2022/03/16 03:06:05;;;;;;;37.43;22.63;;;;;;;2.37;100.00;101952.22;5094313;28;20189;-66
2022/03/16 03:08:32;;;;;;;28.90;20.60;;;;;;;2.30;100.00;101952.13;5093721;28;20238;-66
2022/03/16 03:11:00;;;;;;;33.23;21.13;;;;;;;2.35;100.00;101958.19;5093704;28;20240;-66
2022/03/16 03:13:27;;;;;;;30.97;20.87;;;;;;;2.40;100.00;101954.84;5093615;28;20209;-67
2022/03/16 03:15:53;;;;;;;27.60;20.00;;;;;;;2.52;100.00;101955.84;5094062;28;20234;-66
2022/03/16 03:18:20;;;;;;;32.50;19.83;;;;;;;2.45;100.00;101955.75;5093545;28;20189;-66
2022/03/16 03:20:46;;;;;;;35.07;20.83;;;;;;;2.37;100.00;101957.38;5094367;28;20587;-66
2022/03/16 03:23:13;;;;;;;30.40;20.13;;;;;;;2.28;100.00;101952.09;5093468;28;20242;-66
2022/03/16 03:25:39;;;;;;;36.97;20.43;;;;;;;2.31;100.00;101957.31;5093489;28;20189;-66
2022/03/16 03:28:06;;;;;;;28.53;20.57;;;;;;;2.43;100.00;101944.53;5093711;28;20209;-66
2022/03/16 03:30:32;;;;;;;33.27;20.83;;;;;;;2.51;100.00;101943.78;5093457;28;20186;-66
2022/03/16 03:32:59;;;;;;;33.73;19.47;;;;;;;2.48;100.00;101942.00;5093340;28;20745;-66
2022/03/16 03:35:25;;;;;;;30.70;20.40;;;;;;;2.39;100.00;101950.50;5093407;28;20181;-66
2022/03/16 03:37:54;;;;;;;35.03;20.23;;;;;;;2.45;100.00;101944.56;5093827;28;20209;-66
2022/03/16 03:40:20;;;;;;;31.40;21.07;;;;;;;2.44;100.00;101953.16;5093349;28;20309;-66
2022/03/16 03:42:47;;;;;;;30.87;21.53;;;;;;;2.45;100.00;101945.44;5093530;28;20244;-66
2022/03/16 03:45:13;;;;;;;30.97;20.90;;;;;;;2.43;100.00;101952.31;5093234;28;20216;-66
2022/03/16 03:47:40;;;;;;;39.57;21.53;;;;;;;2.44;100.00;101951.44;5093822;28;20236;-66
2022/03/16 03:50:07;;;;;;;35.87;20.70;;;;;;;2.47;100.00;101943.72;5093772;28;20725;-66
2022/03/16 03:52:33;;;;;;;31.93;20.47;;;;;;;2.51;100.00;101941.19;5093710;28;20247;-66
2022/03/16 03:54:59;;;;;;;32.70;19.40;;;;;;;2.36;100.00;101950.50;5093436;28;20652;-66
2022/03/16 03:57:26;;;;;;;30.10;21.67;;;;;;;2.47;100.00;101951.47;5093106;28;20209;-66
2022/03/16 03:59:53;;;;;;;30.80;20.13;;;;;;;2.44;100.00;101946.28;5093389;28;20193;-66
2022/03/16 04:02:19;;;;;;;35.67;20.50;;;;;;;2.42;100.00;101942.78;5093040;28;20267;-66
2022/03/16 04:04:46;;;;;;;38.50;20.70;;;;;;;2.34;100.00;101941.84;5093094;28;20243;-66
2022/03/16 04:07:12;;;;;;;33.77;21.43;;;;;;;2.33;100.00;101939.22;5093347;28;20194;-66
2022/03/16 04:09:39;;;;;;;31.40;19.97;;;;;;;2.27;100.00;101939.16;5093645;28;20185;-66
2022/03/16 04:12:06;;;;;;;35.10;22.30;;;;;;;2.21;100.00;101939.94;5093196;28;20691;-66
2022/03/16 04:14:32;;;;;;;33.50;22.03;;;;;;;2.14;100.00;101946.78;5093016;28;20597;-66
2022/03/16 04:16:59;;;;;;;33.10;22.40;;;;;;;2.05;100.00;101943.19;5093168;28;20683;-66
2022/03/16 04:19:26;;;;;;;29.17;21.87;;;;;;;2.10;100.00;101942.41;5093017;28;20193;-66
2022/03/16 04:21:53;;;;;;;36.27;21.57;;;;;;;2.02;100.00;101944.00;5093101;28;20262;-66
2022/03/16 04:24:19;;;;;;;28.43;20.50;;;;;;;1.93;100.00;101952.50;5092943;28;20180;-66
2022/03/16 04:26:45;;;;;;;31.20;20.57;;;;;;;1.95;100.00;101949.94;5093989;28;20504;-66
2022/03/16 04:29:12;;;;;;;32.60;22.10;;;;;;;1.84;100.00;101946.31;5093164;28;20557;-66
2022/03/16 04:31:38;;;;;;;28.93;21.33;;;;;;;1.83;100.00;101950.63;5092802;28;20237;-66
2022/03/16 04:34:05;;;;;;;29.67;21.50;;;;;;;1.84;100.00;101954.94;5093048;28;20186;-66
2022/03/16 04:36:31;;;;;;;30.70;20.63;;;;;;;1.75;100.00;101957.41;5096178;28;20226;-66
2022/03/16 04:38:58;;;;;;;40.50;23.30;;;;;;;1.70;100.00;101959.03;5097417;28;20178;-66
2022/03/16 04:41:24;;;;;;;36.37;20.87;;;;;;;1.72;100.00;101954.78;5097117;28;20238;-66
2022/03/16 04:43:51;;;;;;;29.40;22.13;;;;;;;1.76;100.00;101960.84;5096782;28;20178;-66
2022/03/16 04:46:17;;;;;;;32.80;21.13;;;;;;;1.77;100.00;101958.28;5096725;28;20178;-66
2022/03/16 04:48:44;;;;;;;32.10;19.37;;;;;;;1.75;100.00;101959.13;5096614;28;20174;-66
2022/03/16 04:51:10;;;;;;;34.67;21.67;;;;;;;1.67;100.00;101958.13;5096633;28;20238;-66
2022/03/16 04:53:37;;;;;;;26.37;19.03;;;;;;;1.61;100.00;101958.91;5096257;28;20740;-66
2022/03/16 04:56:03;;;;;;;32.07;21.43;;;;;;;1.50;100.00;101961.34;5096247;28;20182;-66
2022/03/16 04:58:31;;;;;;;30.33;19.80;;;;;;;1.58;100.00;101966.63;5096111;28;20259;-66
2022/03/16 05:00:58;;;;;;;41.30;20.97;;;;;;;1.56;100.00;101966.56;5096117;28;20218;-66
2022/03/16 05:03:25;;;;;;;40.60;21.97;;;;;;;1.58;100.00;101961.44;5096268;28;20219;-66
2022/03/16 05:05:51;;;;;;;33.63;21.33;;;;;;;1.51;100.00;101973.38;5095995;28;20184;-66
2022/03/16 05:08:18;;;;;;;29.70;21.13;;;;;;;1.51;100.00;101981.13;5095970;28;20229;-66
2022/03/16 05:10:44;;;;;;;32.53;21.10;;;;;;;1.56;100.00;101973.44;5095932;28;20223;-66
2022/03/16 05:13:11;;;;;;;38.70;20.93;;;;;;;1.48;100.00;101977.63;5095878;28;20210;-66
2022/03/16 05:15:37;;;;;;;31.33;20.80;;;;;;;1.46;100.00;101979.31;5095744;28;20188;-66
2022/03/16 05:18:04;;;;;;;42.40;20.37;;;;;;;1.47;100.00;101979.31;5095955;28;20202;-66
2022/03/16 05:20:31;;;;;;;36.23;20.43;;;;;;;1.45;100.00;101981.03;5095774;28;20204;-66
2022/03/16 05:22:57;;;;;;;35.03;20.07;;;;;;;1.55;100.00;101982.03;5095895;28;20747;-66
2022/03/16 05:25:30;;;;;;;34.60;20.77;;;;;;;1.67;100.00;101982.22;5095850;28;20182;-66
2022/03/16 05:27:57;;;;;;;32.67;19.53;;;;;;;1.65;100.00;101983.94;5095591;28;20203;-66
2022/03/16 05:30:26;;;;;;;27.53;20.23;;;;;;;1.55;100.00;101988.06;5095979;28;20191;-66
2022/03/16 05:32:54;;;;;;;28.67;20.00;;;;;;;1.63;100.00;101981.31;5095387;28;20216;-66
2022/03/16 05:35:21;;;;;;;34.83;21.67;;;;;;;1.60;100.00;101986.44;5095464;28;20219;-66
2022/03/16 05:37:48;;;;;;;31.63;21.67;;;;;;;1.62;100.00;101981.28;5095310;28;20204;-66
2022/03/16 05:40:14;;;;;;;30.40;21.17;;;;;;;1.58;100.00;101980.38;5095640;28;20184;-66
2022/03/16 05:42:41;;;;;;;27.13;19.30;;;;;;;1.72;100.00;101983.19;5095641;28;20209;-66
2022/03/16 05:45:08;;;;;;;31.33;21.30;;;;;;;1.60;100.00;101988.16;5095603;28;20191;-66
2022/03/16 05:47:35;;;;;;;29.97;21.20;;;;;;;1.62;100.00;101983.88;5095127;28;20550;-66
2022/03/16 05:50:02;;;;;;;28.37;20.70;;;;;;;1.65;100.00;101982.22;5095140;28;20687;-66
2022/03/16 05:52:34;;;;;;;29.13;20.30;;;;;;;1.63;100.00;101975.28;5095613;28;20695;-66
2022/03/16 05:55:00;;;;;;;27.87;20.93;;;;;;;1.62;100.00;101970.97;5095118;28;20195;-66
2022/03/16 05:57:27;;;;;;;33.70;20.00;;;;;;;1.67;100.00;101971.91;5094837;28;20199;-66
2022/03/16 05:59:53;;;;;;;29.40;20.67;;;;;;;1.72;100.00;101967.69;5095548;28;20178;-66
2022/03/16 06:02:20;;;;;;;32.37;21.37;;;;;;;1.74;100.00;101968.56;5094847;28;20208;-66
2022/03/16 06:04:46;;;;;;;32.80;19.50;;;;;;;1.67;100.00;101976.19;5095313;28;20191;-66
2022/03/16 06:07:13;;;;;;;33.83;20.83;;;;;;;1.67;100.00;101971.91;5094791;28;20196;-66
2022/03/16 06:09:44;;;;;;;24.80;19.33;;;;;;;1.75;100.00;101975.47;5094724;28;20192;-66
2022/03/16 06:12:11;;;;;;;32.50;20.83;;;;;;;1.77;100.00;101978.94;5094818;28;20754;-66
2022/03/16 06:14:37;;;;;;;37.10;19.90;;;;;;;1.75;100.00;101984.94;5094999;28;20230;-66
2022/03/16 06:17:04;;;;;;;35.03;20.47;;;;;;;1.73;100.00;101972.00;5094873;28;20195;-66
2022/03/16 06:19:30;;;;;;;30.67;19.87;;;;;;;1.77;100.00;101978.06;5094817;28;20562;-66
2022/03/16 06:21:57;;;;;;;39.57;20.80;;;;;;;1.89;100.00;101981.72;5076406;28;20265;-67
2022/03/16 06:24:23;;;;;;;30.87;20.40;;;;;;;1.82;100.00;101986.75;5094773;28;20185;-67
2022/03/16 06:26:50;;;;;;;28.60;19.63;;;;;;;1.89;100.00;101988.59;5094466;28;20188;-67
2022/03/16 06:29:17;;;;;;;37.03;21.50;;;;;;;1.90;100.00;101993.78;5094631;28;20186;-67
2022/03/16 06:31:44;;;;;;;36.57;22.30;;;;;;;1.88;100.00;101992.88;5094196;28;20229;-66
2022/03/16 06:34:10;;;;;;;35.73;20.27;;;;;;;1.92;100.00;101992.06;5094241;28;20196;-66
2022/03/16 06:36:37;;;;;;;34.40;22.50;;;;;;;1.98;100.00;101993.88;5094417;28;20201;-66
2022/03/16 06:39:03;;;;;;;38.40;21.60;;;;;;;2.09;100.00;101991.47;5094531;28;20199;-66
2022/03/16 06:41:29;;;;;;;39.20;21.67;;;;;;;2.15;100.00;101986.38;5094067;28;20235;-66
2022/03/16 06:43:56;;;;;;;37.27;22.60;;;;;;;2.18;100.00;101979.53;5094138;28;20185;-66
2022/03/16 06:46:22;;;;;;;39.17;22.37;;;;;;;2.35;100.00;101977.16;5093999;28;20226;-66
2022/03/16 06:48:49;;;;;;;34.77;21.03;;;;;;;2.49;100.00;101983.38;5094475;28;20193;-66
2022/03/16 06:51:15;;;;;;;31.53;20.60;;;;;;;2.51;100.00;101990.31;5094207;28;20525;-66
2022/03/16 06:53:42;;;;;;;37.50;21.10;;;;;;;2.65;100.00;101989.63;5094077;28;20548;-66
2022/03/16 06:56:09;;;;;;;38.50;21.30;;;;;;;2.81;100.00;101992.38;5094064;28;20242;-66
2022/03/16 06:58:35;;;;;;;44.57;22.27;;;;;;;2.89;100.00;101988.16;5093185;28;20221;-66
2022/03/16 07:01:02;;;;;;;31.20;20.60;;;;;;;2.97;100.00;101986.50;5093849;28;20194;-66
2022/03/16 07:03:29;;;;;;;40.83;20.37;;;;;;;3.06;100.00;101988.31;5093565;28;20209;-66
2022/03/16 07:05:55;;;;;;;32.03;21.37;;;;;;;3.16;100.00;101987.56;5093970;28;20723;-66
2022/03/16 07:08:22;;;;;;;34.97;19.73;;;;;;;3.13;100.00;101984.94;5093880;28;20710;-66
2022/03/16 07:10:48;;;;;;;32.77;21.20;;;;;;;3.20;100.00;101985.00;5093917;28;20705;-66
2022/03/16 07:13:15;;;;;;;35.50;21.80;;;;;;;3.34;100.00;101992.03;5093590;28;20205;-66
2022/03/16 07:15:44;;;;;;;34.83;20.33;;;;;;;3.50;100.00;101988.72;5093934;28;20223;-66
2022/03/16 07:18:11;;;;;;;33.63;21.40;;;;;;;3.60;100.00;101993.13;5093496;28;20213;-66
2022/03/16 07:20:38;;;;;;;47.07;21.30;;;;;;;3.71;100.00;101994.06;5094010;28;20198;-66
2022/03/16 07:23:09;;;;;;;36.87;21.07;;;;;;;3.81;100.00;101987.25;5093438;28;20259;-66
2022/03/16 07:25:58;;;;;;;32.40;21.63;;;;;;;4.02;100.00;101987.38;5093828;28;20190;-66
2022/03/16 07:28:24;;;;;;;33.37;19.73;;;;;;;4.10;100.00;102002.97;5093975;28;20170;-66
2022/03/16 07:30:51;;;;;;;54.90;22.43;;;;;;;4.25;100.00;102005.66;5093397;28;20193;-66
2022/03/16 07:33:18;;;;;;;37.87;21.30;;;;;;;4.41;100.00;102004.00;5093235;28;20264;-66
2022/03/16 07:35:45;;;;;;;38.17;21.70;;;;;;;4.43;100.00;102002.28;5093641;28;20190;-66
2022/03/16 07:38:13;;;;;;;40.83;21.33;;;;;;;4.68;100.00;102003.25;5093275;28;20672;-66
2022/03/16 07:40:40;;;;;;;37.70;19.87;;;;;;;4.75;100.00;102002.41;5093268;28;20190;-66
2022/03/16 07:43:06;;;;;;;34.97;21.47;;;;;;;5.01;100.00;102010.28;5093168;28;20214;-66
2022/03/16 07:45:33;;;;;;;32.43;19.20;;;;;;;5.12;100.00;102010.28;5093515;28;20616;-66
2022/03/16 07:48:00;;;;;;;29.80;18.97;;;;;;;5.18;100.00;102011.16;5093420;28;20221;-66
2022/03/16 07:50:27;;;;;;;25.13;17.53;;;;;;;5.32;100.00;102002.53;5093376;28;20718;-66
2022/03/16 07:52:54;;;;;;;26.33;17.97;;;;;;;5.49;100.00;102006.88;5093075;28;20696;-66
2022/03/16 07:55:21;;;;;;;29.13;17.83;;;;;;;5.63;99.22;101990.41;5093126;28;20237;-67
2022/03/16 07:57:49;;;;;;;23.77;16.90;;;;;;;5.77;98.81;101997.34;5093039;28;20261;-67
2022/03/16 08:00:16;;;;;;;23.30;15.83;;;;;;;5.89;98.31;101996.47;5093125;28;20674;-67
2022/03/16 08:02:45;;;;;;;26.10;16.17;;;;;;;5.99;96.05;101986.94;5093063;28;20209;-66
2022/03/16 08:05:13;;;;;;;33.47;16.33;;;;;;;5.96;96.15;101990.44;5093054;28;20203;-66
2022/03/16 08:07:40;;;;;;;22.27;15.50;;;;;;;6.00;96.10;101976.56;5092986;28;20180;-66
2022/03/16 08:10:07;;;;;;;22.83;15.37;;;;;;;6.13;95.73;101973.91;5096278;28;20714;-66
2022/03/16 08:12:34;;;;;;;20.87;15.43;;;;;;;6.29;95.22;101973.88;5097332;28;20224;-67
2022/03/16 08:15:00;;;;;;;23.33;14.87;;;;;;;6.39;95.08;101974.72;5097038;28;20188;-67
2022/03/16 08:17:27;;;;;;;21.30;14.50;;;;;;;6.56;94.08;101969.41;5096805;28;20247;-66
2022/03/16 08:19:54;;;;;;;17.30;14.10;;;;;;;6.63;92.50;101966.78;5097137;28;20198;-66
2022/03/16 08:22:30;;;;;;;18.33;14.87;;;;;;;6.84;92.25;101965.81;5096690;28;20702;-66
2022/03/16 08:24:59;;;;;;;26.27;13.97;;;;;;;7.06;90.80;101963.94;5097403;28;20570;-66
2022/03/16 08:27:27;;;;;;;19.57;14.33;;;;;;;7.13;91.15;101955.19;5096702;28;20188;-66
2022/03/16 08:29:54;;;;;;;17.40;14.37;;;;;;;7.24;90.12;101946.47;5096960;28;20205;-66
2022/03/16 08:32:22;;;;;;;18.03;13.10;;;;;;;7.45;89.60;101944.53;5096738;28;20263;-66
2022/03/16 08:34:50;;;;;;;17.53;12.80;;;;;;;7.60;88.67;101940.06;5096615;28;20185;-66
2022/03/16 08:37:17;;;;;;;13.87;12.47;;;;;;;7.73;87.96;101945.16;5096533;28;20194;-67
2022/03/16 08:39:45;;;;;;;15.10;13.50;;;;;;;7.94;88.37;101932.78;5096448;28;20198;-67
2022/03/16 08:42:12;;;;;;;19.07;12.30;;;;;;;8.09;86.08;101934.34;5096972;28;20201;-67
2022/03/16 08:44:39;;;;;;;12.63;11.53;;;;;;;8.25;86.06;101933.28;5096430;28;20594;-67
2022/03/16 08:47:06;;;;;;;12.60;11.50;;;;;;;8.32;84.23;101924.50;5096364;28;20187;-67
2022/03/16 08:49:33;;;;;;;11.20;10.50;;;;;;;8.37;82.14;101927.94;5096359;28;20182;-67
2022/03/16 08:51:59;;;;;;;11.60;10.73;;;;;;;8.47;82.57;101929.56;5096232;28;20688;-67
2022/03/16 08:54:26;;;;;;;14.23;12.43;;;;;;;8.49;82.12;101932.13;5096501;28;20652;-66
2022/03/16 08:56:53;;;;;;;12.17;11.07;;;;;;;8.58;81.11;101936.41;5096972;28;20190;-66
2022/03/16 08:59:20;;;;;;;21.00;11.57;;;;;;;8.71;80.93;101927.47;5096337;28;20254;-66
2022/03/16 09:01:47;;;;;;;12.23;11.00;;;;;;;8.96;80.65;101930.63;5096059;28;20210;-67
2022/03/16 09:04:14;;;;;;;12.43;11.23;;;;;;;8.91;79.78;101924.59;5096343;28;20544;-67
2022/03/16 09:06:41;;;;;;;12.57;11.40;;;;;;;9.33;80.11;101928.28;5096234;28;20592;-67
2022/03/16 09:09:07;;;;;;;14.57;11.07;;;;;;;9.40;79.52;101926.44;5096252;28;20653;-67
2022/03/16 09:11:34;;;;;;;13.33;11.03;;;;;;;9.48;79.48;101928.00;5096097;28;20231;-67
2022/03/16 09:14:02;;;;;;;11.80;10.60;;;;;;;9.34;77.40;101930.84;5095871;28;20193;-67
2022/03/16 09:16:29;;;;;;;15.97;11.47;;;;;;;9.51;78.51;101920.13;5095906;28;20532;-67
2022/03/16 09:18:56;;;;;;;11.20;10.27;;;;;;;9.54;77.09;101925.28;5095649;28;20202;-67
2022/03/16 09:21:25;;;;;;;12.57;11.30;;;;;;;9.88;77.96;101922.94;5094720;28;20205;-67
2022/03/16 09:23:53;;;;;;;13.53;12.13;;;;;;;9.90;77.51;101920.28;5095611;28;20215;-67
2022/03/16 09:26:23;;;;;;;12.57;11.47;;;;;;;9.97;76.08;101916.66;5095938;28;20183;-67
2022/03/16 09:28:49;;;;;;;12.10;10.87;;;;;;;10.18;76.25;101913.59;5095581;28;20660;-67
2022/03/16 09:31:16;;;;;;;11.63;10.33;;;;;;;10.17;74.90;101911.91;5095569;28;20237;-67
2022/03/16 09:33:43;;;;;;;10.87;9.93;;;;;;;10.22;74.33;101921.41;5095696;28;20213;-69
2022/03/16 09:36:09;;;;;;;10.93;10.00;;;;;;;10.18;74.70;101913.59;5095658;28;20231;-69
2022/03/16 09:38:36;;;;;;;12.33;10.10;;;;;;;9.99;73.51;101914.00;5095337;28;20201;-70
2022/03/16 09:41:04;;;;;;;12.67;11.37;;;;;;;10.13;74.08;101912.84;5095398;28;20174;-69
2022/03/16 09:43:32;;;;;;;11.07;10.03;;;;;;;10.14;75.36;101909.34;5095193;28;20205;-69
2022/03/16 09:46:15;;;;;;;12.93;11.70;;;;;;;10.25;73.13;101910.91;5096653;28;20193;-69
2022/03/16 09:48:42;;;;;;;14.67;12.27;;;;;;;10.41;73.80;101912.31;5095515;28;20234;-69
2022/03/16 09:51:09;;;;;;;17.03;12.80;;;;;;;10.43;74.02;101913.16;5095668;28;20192;-69
2022/03/16 09:53:37;;;;;;;13.20;10.70;;;;;;;10.64;72.74;101915.25;5095258;28;20206;-69
2022/03/16 09:56:05;;;;;;;13.30;12.00;;;;;;;10.85;74.18;101920.91;5095374;28;20174;-69
2022/03/16 09:58:31;;;;;;;12.03;10.93;;;;;;;11.14;72.01;101918.47;5095210;28;20314;-70
2022/03/16 10:00:58;;;;;;;10.87;10.20;;;;;;;11.22;71.43;101926.19;5094964;28;20189;-70
2022/03/16 10:03:28;;;;;;;11.70;10.80;;;;;;;11.24;70.47;101925.22;5094721;28;20691;-70
2022/03/16 10:05:56;;;;;;;10.57;9.87;;;;;;;11.49;70.25;101909.72;5095095;28;20217;-70
2022/03/16 10:08:28;;;;;;;8.53;8.03;;;;;;;11.74;68.11;101907.31;5094782;28;20185;-70
2022/03/16 10:14:11;;;;;;;8.33;7.67;;;;;;;12.20;65.94;101910.44;5094740;28;20531;-67
2022/03/16 10:19:50;;;;;;;8.27;7.77;;;;;;;13.24;64.13;101910.75;5094523;28;20285;-67
2022/03/16 10:22:25;;;;;;;8.27;7.67;;;;;;;13.15;61.60;101911.91;5094426;28;20699;-68
2022/03/16 10:25:02;;;;;;;8.70;8.23;;;;;;;12.98;60.90;101905.44;5094344;28;20243;-68
2022/03/16 10:27:30;;;;;;;8.37;7.93;;;;;;;13.05;62.77;101904.34;5094721;28;20234;-67
2022/03/16 10:29:57;;;;;;;8.73;8.23;;;;;;;13.08;62.76;101913.00;5094638;28;20185;-67
2022/03/16 10:32:23;;;;;;;8.23;7.73;;;;;;;13.22;60.28;101904.69;5094222;28;20256;-67
2022/03/16 10:34:54;;;;;;;9.43;7.20;;;;;;;13.08;60.90;101910.38;5094490;28;20200;-67
2022/03/16 10:37:22;;;;;;;8.17;7.60;;;;;;;13.26;61.35;101902.81;5094852;28;20178;-67
2022/03/16 10:39:51;;;;;;;8.77;8.00;;;;;;;13.40;60.27;101903.19;5094174;28;20621;-68
2022/03/16 10:47:59;;;;;;;7.13;6.77;;;;;;;13.48;60.06;101886.22;5094264;28;20189;-68
2022/03/16 10:50:26;;;;;;;8.63;8.23;;;;;;;13.77;62.14;101890.47;5094349;28;20228;-68
2022/03/16 10:52:54;;;;;;;7.47;7.10;;;;;;;13.85;59.73;101895.47;5094102;28;20683;-68
2022/03/16 10:55:22;;;;;;;7.80;7.40;;;;;;;13.71;59.94;101881.94;5094219;28;20702;-68
2022/03/16 10:57:50;;;;;;;7.60;7.40;;;;;;;13.55;59.74;101897.41;5076556;28;20182;-68
2022/03/16 11:00:17;;;;;;;7.50;7.10;;;;;;;13.59;60.45;101888.50;5094084;28;20717;-68
2022/03/16 11:02:45;;;;;;;25.83;8.30;;;;;;;13.48;59.65;101885.38;5093730;28;20251;-68
2022/03/16 11:05:20;;;;;;;8.57;8.27;;;;;;;13.57;59.43;101881.56;5076454;28;20193;-68
2022/03/16 11:07:50;;;;;;;8.37;7.97;;;;;;;13.67;60.84;101881.19;5094037;28;20178;-67
2022/03/16 11:10:17;;;;;;;7.97;7.67;;;;;;;13.76;58.81;101887.91;5093931;28;20175;-70
2022/03/16 11:15:31;;;;;;;8.17;7.77;;;;;;;14.07;59.45;101873.59;5093939;28;20242;-70
2022/03/16 11:17:57;;;;;;;8.20;7.80;;;;;;;14.24;57.04;101881.75;5093509;28;20670;-70
2022/03/16 11:20:25;;;;;;;7.60;7.03;;;;;;;14.46;58.05;101887.09;5093642;28;20728;-70
2022/03/16 11:26:10;;;;;;;7.10;6.90;;;;;;;14.53;59.13;101878.88;5093814;28;20170;-71
2022/03/16 11:29:14;;;;;;;7.40;7.10;;;;;;;14.68;58.06;101881.84;5093680;28;20578;-71
2022/03/16 11:31:42;;;;;;;7.40;7.10;;;;;;;14.79;57.29;101869.97;5093603;28;20173;-71